createdAt,value
2018-12-04T00:00:35.012Z,100.00
2018-12-04T00:03:03.207Z,100.00
2018-12-04T00:05:30.659Z,100.00
2018-12-04T00:07:58.134Z,100.00
2018-12-04T00:10:25.596Z,100.00
2018-12-04T00:12:53.060Z,100.00
2018-12-04T00:15:20.533Z,100.00
2018-12-04T00:17:48.017Z,100.00
2018-12-04T00:20:16.034Z,100.00
2018-12-04T00:22:43.501Z,100.00
2018-12-04T00:25:11.017Z,100.00
2018-12-04T00:27:38.475Z,100.00
2018-12-04T00:30:06.461Z,100.00
2018-12-04T00:32:33.937Z,100.00
2018-12-04T00:35:01.401Z,100.00
2018-12-04T00:37:28.841Z,100.00
2018-12-04T00:39:56.370Z,100.00
2018-12-04T00:42:26.437Z,100.00
2018-12-04T00:44:53.877Z,100.00
2018-12-04T00:47:21.347Z,100.00
2018-12-04T00:49:48.837Z,100.00
2018-12-04T00:52:16.444Z,100.00
2018-12-04T00:54:43.928Z,100.00
2018-12-04T00:57:12.031Z,100.00
2018-12-04T00:59:39.605Z,100.00
2018-12-04T01:02:07.880Z,100.00
2018-12-04T01:04:35.331Z,100.00
2018-12-04T01:07:02.895Z,100.00
2018-12-04T01:09:30.379Z,100.00
2018-12-04T01:11:57.855Z,100.00
2018-12-04T01:14:25.327Z,100.00
2018-12-04T01:16:53.217Z,100.00
2018-12-04T01:19:20.681Z,100.00
2018-12-04T01:21:48.133Z,100.00
2018-12-04T01:24:15.590Z,100.00
2018-12-04T01:26:43.068Z,100.00
2018-12-04T01:29:10.546Z,100.00
2018-12-04T01:31:37.998Z,100.00
2018-12-04T01:34:05.453Z,100.00
2018-12-04T01:36:33.377Z,100.00
2018-12-04T01:39:00.847Z,100.00
2018-12-04T01:41:28.316Z,100.00
2018-12-04T01:43:55.838Z,100.00
2018-12-04T01:46:23.312Z,100.00
2018-12-04T01:48:50.768Z,100.00
2018-12-04T01:51:18.236Z,100.00
2018-12-04T01:53:45.854Z,100.00
2018-12-04T01:56:14.007Z,100.00
2018-12-04T01:58:41.519Z,100.00
2018-12-04T02:01:09.032Z,100.00
2018-12-04T02:03:36.499Z,100.00
2018-12-04T02:06:04.011Z,100.00
2018-12-04T02:08:31.454Z,100.00
2018-12-04T02:10:58.923Z,100.00
2018-12-04T02:13:26.380Z,100.00
2018-12-04T02:15:53.850Z,100.00
2018-12-04T02:18:21.303Z,100.00
2018-12-04T02:20:49.023Z,100.00
2018-12-04T02:23:16.503Z,100.00
2018-12-04T02:25:43.960Z,100.00
2018-12-04T02:28:11.467Z,100.00
2018-12-04T02:30:38.939Z,100.00
2018-12-04T02:33:07.098Z,100.00
2018-12-04T02:35:34.599Z,100.00
2018-12-04T02:38:02.097Z,100.00
2018-12-04T02:40:29.556Z,100.00
2018-12-04T02:42:57.068Z,100.00
2018-12-04T02:45:24.532Z,100.00
2018-12-04T02:47:51.992Z,100.00
2018-12-04T02:50:19.475Z,100.00
2018-12-04T02:52:46.949Z,100.00
2018-12-04T02:55:14.383Z,100.00
2018-12-04T02:57:41.871Z,100.00
2018-12-04T03:00:09.487Z,100.00
2018-12-04T03:02:36.943Z,100.00
2018-12-04T03:05:05.004Z,100.00
2018-12-04T03:07:33.410Z,100.00
2018-12-04T03:10:00.905Z,100.00
2018-12-04T03:12:28.360Z,100.00
2018-12-04T03:14:55.892Z,100.00
2018-12-04T03:17:23.373Z,100.00
2018-12-04T03:19:50.867Z,100.00
2018-12-04T03:22:18.736Z,100.00
2018-12-04T03:24:46.184Z,100.00
2018-12-04T03:27:13.663Z,100.00
2018-12-04T03:29:41.120Z,100.00
2018-12-04T03:32:08.635Z,100.00
2018-12-04T03:34:36.206Z,100.00
2018-12-04T03:37:03.728Z,100.00
2018-12-04T03:39:31.224Z,100.00
2018-12-04T03:41:58.666Z,100.00
2018-12-04T03:44:26.127Z,100.00
2018-12-04T03:46:53.599Z,100.00
2018-12-04T03:49:21.051Z,100.00
2018-12-04T03:51:48.501Z,100.00
2018-12-04T03:54:16.205Z,100.00
2018-12-04T03:56:43.654Z,100.00
2018-12-04T03:59:11.827Z,100.00
2018-12-04T04:01:39.344Z,100.00
2018-12-04T04:04:06.844Z,100.00
2018-12-04T04:06:34.291Z,100.00
2018-12-04T04:09:01.765Z,100.00
2018-12-04T04:11:29.213Z,100.00
2018-12-04T04:13:56.669Z,100.00
2018-12-04T04:16:24.243Z,100.00
2018-12-04T04:18:51.852Z,100.00
2018-12-04T04:21:19.324Z,100.00
2018-12-04T04:23:46.761Z,100.00
2018-12-04T04:26:14.244Z,100.00
2018-12-04T04:28:41.992Z,100.00
2018-12-04T04:31:09.447Z,100.00
2018-12-04T04:33:36.894Z,100.00
2018-12-04T04:36:04.502Z,100.00
2018-12-04T04:38:32.043Z,100.00
2018-12-04T04:40:59.513Z,100.00
2018-12-04T04:43:26.991Z,100.00
2018-12-04T04:45:54.460Z,100.00
2018-12-04T04:48:21.941Z,100.00
2018-12-04T04:50:49.409Z,100.00
2018-12-04T04:53:16.858Z,100.00
2018-12-04T04:55:44.336Z,100.00
2018-12-04T04:58:11.781Z,100.00
2018-12-04T05:00:39.284Z,100.00
2018-12-04T05:03:06.735Z,100.00
2018-12-04T05:05:36.188Z,100.00
2018-12-04T05:08:03.703Z,100.00
2018-12-04T05:10:31.164Z,100.00
2018-12-04T05:13:00.298Z,100.00
2018-12-04T05:15:27.749Z,100.00
2018-12-04T05:17:55.217Z,100.00
2018-12-04T05:20:22.690Z,100.00
2018-12-04T05:22:50.250Z,100.00
2018-12-04T05:25:17.685Z,100.00
2018-12-04T05:27:45.159Z,100.00
2018-12-04T05:30:12.622Z,100.00
2018-12-04T05:32:40.112Z,100.00
2018-12-04T05:35:07.641Z,100.00
2018-12-04T05:37:35.112Z,100.00
2018-12-04T05:40:02.947Z,100.00
2018-12-04T05:42:30.431Z,100.00
2018-12-04T05:44:57.903Z,100.00
2018-12-04T05:47:25.362Z,100.00
2018-12-04T05:49:52.810Z,100.00
2018-12-04T05:52:20.272Z,100.00
2018-12-04T05:54:47.837Z,100.00
2018-12-04T05:57:15.331Z,100.00
2018-12-04T05:59:42.822Z,100.00
2018-12-04T06:02:10.295Z,100.00
2018-12-04T06:04:39.394Z,100.00
2018-12-04T06:07:06.892Z,100.00
2018-12-04T06:09:34.628Z,100.00
2018-12-04T06:12:02.079Z,100.00
2018-12-04T06:14:29.583Z,100.00
2018-12-04T06:16:57.136Z,100.00
2018-12-04T06:19:24.619Z,100.00
2018-12-04T06:21:52.079Z,100.00
2018-12-04T06:24:19.928Z,100.00
2018-12-04T06:26:47.456Z,100.00
2018-12-04T06:29:14.907Z,100.00
2018-12-04T06:31:42.365Z,100.00
2018-12-04T06:34:09.829Z,100.00
2018-12-04T06:36:40.564Z,100.00
2018-12-04T06:39:08.162Z,100.00
2018-12-04T06:41:35.643Z,100.00
2018-12-04T06:44:03.164Z,100.00
2018-12-04T06:46:30.651Z,100.00
2018-12-04T06:48:58.175Z,100.00
2018-12-04T06:51:25.647Z,100.00
2018-12-04T06:53:53.126Z,100.00
2018-12-04T06:56:20.652Z,100.00
2018-12-04T06:58:48.102Z,100.00
2018-12-04T07:01:15.615Z,100.00
2018-12-04T07:03:43.250Z,100.00
2018-12-04T07:06:10.741Z,100.00
2018-12-04T07:08:38.214Z,100.00
2018-12-04T07:11:05.686Z,100.00
2018-12-04T07:13:33.147Z,100.00
2018-12-04T07:16:00.595Z,100.00
2018-12-04T07:18:28.053Z,100.00
2018-12-04T07:20:55.526Z,100.00
2018-12-04T07:23:22.992Z,100.00
2018-12-04T07:25:50.469Z,100.00
2018-12-04T07:28:17.929Z,100.00
2018-12-04T07:30:45.657Z,100.00
2018-12-04T07:33:13.201Z,100.00
2018-12-04T07:35:40.733Z,100.00
2018-12-04T07:38:08.240Z,100.00
2018-12-04T07:40:35.709Z,100.00
2018-12-04T07:43:03.184Z,100.00
2018-12-04T07:45:30.650Z,100.00
2018-12-04T07:47:58.118Z,100.00
2018-12-04T07:50:25.605Z,100.00
2018-12-04T07:52:53.075Z,100.00
2018-12-04T07:55:20.793Z,100.00
2018-12-04T07:57:48.242Z,100.00
2018-12-04T08:00:15.713Z,100.00
2018-12-04T08:02:43.176Z,100.00
2018-12-04T08:05:10.637Z,100.00
2018-12-04T08:07:38.127Z,100.00
2018-12-04T08:10:07.188Z,100.00
2018-12-04T08:12:34.641Z,100.00
2018-12-04T08:15:02.106Z,100.00
2018-12-04T08:17:29.546Z,100.00
2018-12-04T08:19:57.020Z,100.00
2018-12-04T08:22:24.461Z,100.00
2018-12-04T08:24:51.913Z,100.00
2018-12-04T08:27:19.469Z,100.00
2018-12-04T08:29:46.976Z,100.00
2018-12-04T08:32:14.444Z,100.00
2018-12-04T08:34:41.913Z,100.00
2018-12-04T08:37:09.389Z,99.63
2018-12-04T08:39:36.842Z,99.68
2018-12-04T08:42:04.293Z,98.91
2018-12-04T08:44:31.758Z,98.10
2018-12-04T08:46:59.210Z,96.29
2018-12-04T08:49:26.710Z,95.56
2018-12-04T08:51:54.179Z,94.12
2018-12-04T08:54:21.657Z,92.26
2018-12-04T08:56:49.114Z,92.41
2018-12-04T08:59:16.569Z,91.79
2018-12-04T09:01:44.077Z,90.99
2018-12-04T09:04:11.558Z,90.78
2018-12-04T09:06:39.014Z,89.86
2018-12-04T09:09:08.516Z,90.04
2018-12-04T09:11:35.972Z,90.35
2018-12-04T09:14:03.521Z,89.56
2018-12-04T09:16:30.964Z,90.90
2018-12-04T09:18:58.432Z,89.86
2018-12-04T09:21:26.033Z,90.62
2018-12-04T09:23:53.623Z,90.10
2018-12-04T09:26:21.141Z,89.36
2018-12-04T09:28:48.751Z,89.09
2018-12-04T09:31:16.345Z,88.32
2018-12-04T09:33:43.826Z,88.62
2018-12-04T09:36:11.453Z,89.35
2018-12-04T09:38:38.920Z,89.31
2018-12-04T09:41:06.409Z,88.79
2018-12-04T09:43:33.870Z,88.24
2018-12-04T09:46:01.332Z,87.09
2018-12-04T09:48:28.808Z,88.41
2018-12-04T09:50:56.281Z,88.03
2018-12-04T09:53:25.289Z,88.30
2018-12-04T09:55:53.226Z,89.32
2018-12-04T09:58:20.725Z,88.75
2018-12-04T10:00:48.180Z,89.37
2018-12-04T10:03:15.681Z,90.26
2018-12-04T10:05:43.177Z,89.84
2018-12-04T10:08:10.642Z,90.91
2018-12-04T10:10:38.100Z,90.92
2018-12-04T10:13:06.052Z,90.61
2018-12-04T10:15:33.592Z,91.20
2018-12-04T10:18:01.064Z,91.20
2018-12-04T10:20:28.512Z,91.03
2018-12-04T10:22:55.960Z,91.57
2018-12-04T10:25:23.457Z,91.27
2018-12-04T10:27:51.366Z,90.93
2018-12-04T10:30:18.854Z,92.04
2018-12-04T10:32:48.291Z,90.80
2018-12-04T10:35:15.800Z,91.00
2018-12-04T10:37:43.270Z,90.84
2018-12-04T10:40:10.755Z,91.72
2018-12-04T10:42:38.224Z,91.12
2018-12-04T10:45:06.415Z,89.93
2018-12-04T10:47:33.869Z,90.12
2018-12-04T10:50:05.721Z,89.21
2018-12-04T10:52:33.221Z,89.03
2018-12-04T10:55:00.703Z,88.69
2018-12-04T10:57:28.169Z,88.52
2018-12-04T10:59:55.647Z,88.62
2018-12-04T11:02:24.518Z,88.41
2018-12-04T11:04:52.029Z,88.13
2018-12-04T11:07:19.545Z,87.36
2018-12-04T11:09:47.008Z,87.50
2018-12-04T11:12:14.465Z,87.62
2018-12-04T11:14:41.916Z,86.69
2018-12-04T11:17:09.437Z,87.32
2018-12-04T11:19:36.884Z,88.09
2018-12-04T11:22:04.354Z,87.13
2018-12-04T11:24:31.836Z,87.12
2018-12-04T11:26:59.315Z,86.99
2018-12-04T11:29:26.793Z,87.29
2018-12-04T11:31:54.270Z,86.73
2018-12-04T11:34:21.751Z,85.70
2018-12-04T11:36:49.229Z,86.80
2018-12-04T11:39:16.670Z,86.67
2018-12-04T11:41:44.127Z,86.28
2018-12-04T11:44:11.590Z,85.35
2018-12-04T11:46:39.060Z,86.16
2018-12-04T11:49:06.839Z,84.93
2018-12-04T11:51:34.313Z,85.34
2018-12-04T11:54:01.856Z,84.45
2018-12-04T11:56:29.626Z,84.02
2018-12-04T11:58:57.247Z,83.81
2018-12-04T12:01:27.815Z,82.43
2018-12-04T12:03:55.407Z,82.26
2018-12-04T12:06:22.968Z,81.48
2018-12-04T12:08:50.431Z,79.99
2018-12-04T12:11:17.893Z,78.16
2018-12-04T12:13:45.377Z,78.13
2018-12-04T12:16:12.857Z,79.19
2018-12-04T12:18:40.298Z,80.06
2018-12-04T12:21:07.818Z,78.62
2018-12-04T12:23:35.310Z,78.17
2018-12-04T12:26:02.768Z,78.58
2018-12-04T12:28:30.229Z,78.36
2018-12-04T12:30:57.724Z,79.06
2018-12-04T12:33:25.200Z,77.47
2018-12-04T12:35:52.656Z,78.50
2018-12-04T12:38:20.189Z,77.33
2018-12-04T12:40:47.655Z,77.05
2018-12-04T12:43:15.131Z,76.44
2018-12-04T12:45:43.196Z,76.66
2018-12-04T12:48:10.654Z,76.24
2018-12-04T12:50:38.163Z,77.39
2018-12-04T12:53:05.701Z,77.94
2018-12-04T12:55:33.208Z,77.90
2018-12-04T12:58:00.651Z,78.23
2018-12-04T13:00:28.116Z,79.04
2018-12-04T13:02:55.573Z,78.47
2018-12-04T13:05:23.504Z,77.28
2018-12-04T13:07:50.956Z,78.05
2018-12-04T13:10:18.468Z,78.00
2018-12-04T13:12:46.000Z,77.43
2018-12-04T13:15:13.511Z,77.52
2018-12-04T13:17:41.047Z,77.56
2018-12-04T13:20:08.731Z,78.01
2018-12-04T13:22:36.205Z,77.89
2018-12-04T13:25:05.702Z,78.22
2018-12-04T13:27:33.174Z,77.09
2018-12-04T13:30:00.669Z,77.34
2018-12-04T13:32:28.127Z,77.56
2018-12-04T13:34:55.583Z,78.52
2018-12-04T13:37:23.055Z,79.20
2018-12-04T13:39:50.555Z,79.86
2018-12-04T13:42:18.049Z,79.83
2018-12-04T13:44:45.631Z,79.12
2018-12-04T13:47:13.091Z,79.01
2018-12-04T13:49:40.567Z,79.83
2018-12-04T13:52:08.071Z,79.73
2018-12-04T13:54:35.680Z,79.07
2018-12-04T13:57:03.129Z,78.40
2018-12-04T13:59:30.765Z,78.83
2018-12-04T14:01:58.289Z,79.44
2018-12-04T14:04:25.774Z,78.94
2018-12-04T14:06:53.283Z,78.77
2018-12-04T14:09:20.759Z,79.33
2018-12-04T14:11:48.230Z,79.40
2018-12-04T14:14:15.725Z,80.03
2018-12-04T14:16:43.243Z,79.40
2018-12-04T14:19:10.745Z,80.00
2018-12-04T14:21:38.211Z,79.64
2018-12-04T14:24:05.685Z,80.16
2018-12-04T14:26:33.387Z,80.41
2018-12-04T14:29:01.000Z,80.33
2018-12-04T14:31:28.630Z,80.59
2018-12-04T14:33:56.163Z,80.41
2018-12-04T14:36:23.664Z,79.92
2018-12-04T14:38:51.108Z,79.63
2018-12-04T14:41:18.614Z,79.74
2018-12-04T14:43:46.230Z,80.63
2018-12-04T14:46:13.789Z,81.01
2018-12-04T14:48:41.246Z,80.48
2018-12-04T14:51:08.755Z,81.25
2018-12-04T14:53:36.254Z,81.10
2018-12-04T14:56:03.709Z,81.00
2018-12-04T14:58:31.168Z,81.58
2018-12-04T15:00:58.661Z,81.20
2018-12-04T15:03:26.165Z,82.65
2018-12-04T15:05:53.662Z,82.17
2018-12-04T15:08:21.210Z,81.81
2018-12-04T15:10:48.700Z,81.84
2018-12-04T15:13:16.288Z,82.08
2018-12-04T15:15:43.907Z,82.97
2018-12-04T15:18:11.381Z,83.22
2018-12-04T15:20:39.557Z,83.18
2018-12-04T15:23:07.104Z,84.02
2018-12-04T15:25:34.698Z,84.15
2018-12-04T15:28:02.553Z,84.00
2018-12-04T15:30:30.124Z,84.60
2018-12-04T15:32:57.700Z,84.65
2018-12-04T15:35:25.296Z,84.73
2018-12-04T15:37:52.829Z,84.27
2018-12-04T15:40:20.450Z,85.10
2018-12-04T15:42:47.955Z,84.58
2018-12-04T15:45:15.555Z,84.34
2018-12-04T15:47:43.199Z,84.66
2018-12-04T15:50:10.875Z,84.10
2018-12-04T15:52:38.380Z,84.40
2018-12-04T15:55:06.081Z,85.49
2018-12-04T15:57:34.186Z,84.92
2018-12-04T16:00:01.681Z,86.16
2018-12-04T16:02:29.131Z,85.97
2018-12-04T16:04:57.179Z,86.26
2018-12-04T16:07:24.681Z,86.46
2018-12-04T16:09:52.150Z,86.69
2018-12-04T16:12:19.613Z,86.89
2018-12-04T16:14:47.103Z,87.74
2018-12-04T16:17:15.370Z,87.66
2018-12-04T16:19:43.181Z,88.20
2018-12-04T16:22:10.697Z,88.59
2018-12-04T16:24:38.162Z,88.91
2018-12-04T16:27:05.614Z,89.37
2018-12-04T16:29:33.064Z,89.93
2018-12-04T16:32:00.523Z,90.04
2018-12-04T16:34:27.967Z,91.00
2018-12-04T16:36:55.469Z,90.65
2018-12-04T16:39:22.930Z,91.52
2018-12-04T16:41:50.409Z,91.27
2018-12-04T16:44:17.866Z,91.69
2018-12-04T16:46:45.340Z,93.21
2018-12-04T16:49:12.773Z,93.09
2018-12-04T16:51:40.268Z,93.11
2018-12-04T16:54:07.716Z,94.20
2018-12-04T16:56:35.224Z,95.24
2018-12-04T16:59:02.806Z,95.26
2018-12-04T17:01:30.290Z,95.55
2018-12-04T17:03:57.772Z,95.47
2018-12-04T17:06:25.218Z,96.64
2018-12-04T17:08:52.678Z,96.89
2018-12-04T17:11:20.121Z,97.09
2018-12-04T17:13:47.587Z,97.56
2018-12-04T17:16:15.037Z,97.74
2018-12-04T17:18:42.504Z,97.59
2018-12-04T17:21:09.985Z,97.02
2018-12-04T17:23:37.433Z,97.94
2018-12-04T17:26:04.958Z,98.02
2018-12-04T17:28:32.451Z,98.11
2018-12-04T17:30:59.961Z,98.93
2018-12-04T17:33:27.491Z,99.10
2018-12-04T17:35:54.973Z,99.22
2018-12-04T17:38:23.575Z,99.31
2018-12-04T17:40:51.029Z,99.07
2018-12-04T17:43:18.642Z,99.82
2018-12-04T17:45:46.092Z,99.60
2018-12-04T17:48:14.108Z,99.67
2018-12-04T17:50:41.560Z,99.37
2018-12-04T17:53:09.011Z,99.66
2018-12-04T17:55:37.006Z,99.35
2018-12-04T17:58:04.474Z,99.52
2018-12-04T18:00:32.584Z,99.63
2018-12-04T18:03:00.066Z,99.00
2018-12-04T18:05:28.033Z,99.59
2018-12-04T18:07:56.407Z,99.58
2018-12-04T18:10:23.945Z,99.56
2018-12-04T18:12:51.432Z,99.11
2018-12-04T18:15:19.099Z,99.44
2018-12-04T18:17:46.627Z,99.17
2018-12-04T18:20:14.094Z,98.74
2018-12-04T18:22:42.781Z,99.67
2018-12-04T18:25:10.371Z,99.79
2018-12-04T18:27:38.027Z,99.70
2018-12-04T18:30:07.061Z,99.68
2018-12-04T18:32:35.560Z,99.53
2018-12-04T18:35:03.600Z,99.53
2018-12-04T18:37:31.930Z,99.05
2018-12-04T18:39:59.659Z,99.76
2018-12-04T18:42:27.697Z,99.30
2018-12-04T18:44:55.401Z,99.77
2018-12-04T18:47:23.103Z,99.42
2018-12-04T18:49:51.699Z,98.80
2018-12-04T18:52:19.337Z,98.69
2018-12-04T18:54:47.614Z,98.53
2018-12-04T18:57:15.305Z,98.65
2018-12-04T18:59:43.049Z,98.76
2018-12-04T19:02:11.414Z,98.11
2018-12-04T19:04:40.159Z,97.91
2018-12-04T19:07:08.143Z,98.15
2018-12-04T19:09:35.650Z,98.68
2018-12-04T19:12:03.215Z,98.29
2018-12-04T19:14:31.591Z,98.26
2018-12-04T19:17:01.893Z,98.64
2018-12-04T19:19:29.579Z,98.52
2018-12-04T19:21:57.062Z,98.03
2018-12-04T19:24:25.868Z,98.24
2018-12-04T19:26:53.882Z,98.06
2018-12-04T19:29:21.339Z,98.70
2018-12-04T19:31:50.042Z,99.17
2018-12-04T19:34:17.490Z,98.66
2018-12-04T19:36:44.964Z,99.40
2018-12-04T19:39:12.408Z,99.25
2018-12-04T19:41:39.916Z,99.24
2018-12-04T19:44:07.509Z,99.56
2018-12-04T19:46:34.968Z,99.16
2018-12-04T19:49:02.429Z,99.45
2018-12-04T19:51:30.266Z,99.00
2018-12-04T19:53:57.853Z,99.25
2018-12-04T19:56:25.720Z,98.96
2018-12-04T19:58:53.157Z,99.50
2018-12-04T20:01:20.633Z,99.32
2018-12-04T20:03:48.113Z,99.87
2018-12-04T20:06:15.794Z,99.36
2018-12-04T20:08:48.827Z,100.00
2018-12-04T20:11:16.303Z,99.95
2018-12-04T20:13:43.844Z,99.68
2018-12-04T20:16:11.315Z,99.38
2018-12-04T20:18:38.774Z,99.63
2018-12-04T20:21:06.332Z,99.81
2018-12-04T20:23:33.793Z,99.58
2018-12-04T20:26:01.612Z,99.87
2018-12-04T20:28:29.122Z,100.00
2018-12-04T20:30:57.051Z,99.93
2018-12-04T20:33:24.731Z,100.00
2018-12-04T20:35:52.205Z,99.93
2018-12-04T20:38:20.886Z,100.00
2018-12-04T20:40:48.411Z,100.00
2018-12-04T20:43:15.862Z,100.00
2018-12-04T20:45:43.356Z,100.00
2018-12-04T20:48:11.633Z,100.00
2018-12-04T20:50:39.221Z,100.00
2018-12-04T20:53:06.903Z,100.00
2018-12-04T20:55:34.406Z,100.00
2018-12-04T20:58:02.753Z,100.00
2018-12-04T21:00:30.207Z,100.00
2018-12-04T21:02:57.755Z,100.00
2018-12-04T21:05:25.373Z,100.00
2018-12-04T21:07:53.965Z,100.00
2018-12-04T21:10:21.878Z,100.00
2018-12-04T21:12:49.356Z,100.00
2018-12-04T21:15:16.823Z,100.00
2018-12-04T21:17:44.278Z,100.00
2018-12-04T21:20:11.744Z,100.00
2018-12-04T21:22:39.211Z,100.00
2018-12-04T21:25:06.681Z,100.00
2018-12-04T21:27:39.966Z,100.00
2018-12-04T21:30:13.204Z,100.00
2018-12-04T21:32:46.349Z,100.00
2018-12-04T21:35:19.929Z,100.00
2018-12-04T21:37:52.931Z,100.00
2018-12-04T21:43:34.294Z,100.00
2018-12-04T21:46:07.468Z,100.00
2018-12-04T21:48:35.491Z,100.00
2018-12-04T21:51:03.421Z,100.00
2018-12-04T21:53:31.848Z,100.00
2018-12-04T21:56:00.259Z,100.00
2018-12-04T21:58:27.730Z,100.00
2018-12-04T22:00:55.174Z,100.00
2018-12-04T22:03:22.627Z,100.00
2018-12-04T22:05:50.110Z,100.00
2018-12-04T22:08:17.574Z,100.00
2018-12-04T22:10:45.893Z,100.00
2018-12-04T22:13:13.357Z,100.00
2018-12-04T22:15:40.810Z,100.00
2018-12-04T22:18:08.323Z,100.00
2018-12-04T22:20:36.756Z,100.00
2018-12-04T22:23:04.295Z,100.00
2018-12-04T22:25:32.481Z,100.00
2018-12-04T22:28:00.184Z,100.00
2018-12-04T22:30:28.433Z,100.00
2018-12-04T22:32:55.904Z,100.00
2018-12-04T22:35:23.370Z,100.00
2018-12-04T22:37:50.848Z,100.00
2018-12-04T22:40:18.912Z,100.00
2018-12-04T22:42:47.474Z,100.00
2018-12-04T22:45:30.462Z,100.00
2018-12-04T22:47:57.964Z,100.00
2018-12-04T22:50:25.969Z,100.00
2018-12-04T22:52:53.581Z,100.00
2018-12-04T22:55:21.360Z,100.00
2018-12-04T22:57:50.352Z,100.00
2018-12-04T23:00:24.679Z,100.00
2018-12-04T23:02:52.193Z,100.00
2018-12-04T23:05:19.892Z,100.00
2018-12-04T23:07:47.538Z,100.00
2018-12-04T23:10:15.037Z,100.00
2018-12-04T23:12:42.709Z,100.00
2018-12-04T23:15:10.338Z,100.00
2018-12-04T23:17:37.847Z,100.00
2018-12-04T23:20:05.704Z,100.00
2018-12-04T23:25:09.353Z,100.00
2018-12-04T23:27:36.931Z,100.00
2018-12-04T23:30:06.542Z,100.00
2018-12-04T23:32:34.177Z,100.00
2018-12-04T23:35:02.824Z,100.00
2018-12-04T23:37:30.473Z,100.00
2018-12-04T23:39:58.212Z,100.00
2018-12-04T23:42:25.895Z,100.00
2018-12-04T23:44:53.624Z,100.00
2018-12-04T23:47:21.392Z,100.00
2018-12-04T23:49:49.055Z,100.00
2018-12-04T23:52:16.523Z,100.00
2018-12-04T23:54:43.986Z,100.00
2018-12-04T23:57:11.439Z,100.00
2018-12-04T23:59:38.906Z,100.00
